createdAt,value
2022-08-11T00:00:09.702Z,100171.28
2022-08-11T00:02:41.599Z,100170.47
2022-08-11T00:05:12.151Z,100160.38
2022-08-11T00:07:46.196Z,100172.97
2022-08-11T00:10:16.190Z,100174.66
2022-08-11T00:12:45.655Z,100175.44
2022-08-11T00:15:14.092Z,100174.66
2022-08-11T00:17:42.887Z,100171.28
2022-08-11T00:20:16.524Z,100176.41
2022-08-11T00:22:48.456Z,100168.75
2022-08-11T00:25:20.214Z,100180.66
2022-08-11T00:27:49.564Z,100170.41
2022-08-11T00:30:18.416Z,100180.69
2022-08-11T00:32:59.002Z,100174.00
2022-08-11T00:35:56.997Z,100176.59
2022-08-11T00:38:26.147Z,100163.88
2022-08-11T00:41:00.734Z,100167.22
2022-08-11T00:43:48.391Z,100167.22
2022-08-11T00:46:28.707Z,100157.16
2022-08-11T00:49:09.582Z,100163.16
2022-08-11T00:52:04.217Z,100164.94
2022-08-11T00:55:16.433Z,100167.50
2022-08-11T00:58:24.956Z,100165.78
2022-08-11T01:01:15.365Z,100170.91
2022-08-11T01:04:09.194Z,100160.75
2022-08-11T01:07:02.024Z,100159.09
2022-08-11T01:09:50.949Z,100159.13
2022-08-11T01:12:41.259Z,100158.31
2022-08-11T01:15:42.277Z,100153.31
2022-08-11T01:18:55.052Z,100156.91
2022-08-11T01:22:11.670Z,100154.50
2022-08-11T01:25:57.681Z,100153.91
2022-08-11T01:29:05.891Z,100154.72
2022-08-11T01:32:02.004Z,100146.13
2022-08-11T01:35:20.158Z,100152.97
2022-08-11T01:38:29.132Z,100149.50
2022-08-11T01:41:24.951Z,100157.97
2022-08-11T01:44:31.111Z,100158.84
2022-08-11T01:47:38.616Z,100152.97
2022-08-11T01:50:36.795Z,100152.13
2022-08-11T01:53:16.017Z,100150.38
2022-08-11T01:55:57.964Z,100158.84
2022-08-11T01:58:43.743Z,100152.91
2022-08-11T02:01:27.417Z,100154.69
2022-08-11T02:03:59.484Z,100114.28
2022-08-11T02:06:56.475Z,100136.25
2022-08-11T02:09:54.495Z,100143.78
2022-08-11T02:12:52.203Z,100139.63
2022-08-11T02:15:28.854Z,100137.91
2022-08-11T02:18:07.117Z,100148.09
2022-08-11T02:21:00.581Z,100144.75
2022-08-11T02:24:06.766Z,100149.91
2022-08-11T02:26:38.356Z,100151.63
2022-08-11T02:29:14.526Z,100144.91
2022-08-11T02:32:28.426Z,100135.63
2022-08-11T02:35:19.973Z,100148.28
2022-08-11T02:37:56.598Z,100151.69
2022-08-11T02:40:35.373Z,100150.00
2022-08-11T02:43:12.160Z,100143.25
2022-08-11T02:45:57.625Z,100145.75
2022-08-11T02:49:02.657Z,100144.97
2022-08-11T02:51:41.937Z,100144.97
2022-08-11T02:54:17.775Z,100126.38
2022-08-11T02:56:58.029Z,100142.44
2022-08-11T02:59:53.274Z,100138.22
2022-08-11T03:02:33.110Z,100144.28
2022-08-11T03:05:09.126Z,100140.94
2022-08-11T03:07:52.756Z,100152.00
2022-08-11T03:10:24.581Z,100152.06
2022-08-11T03:13:22.893Z,100147.06
2022-08-11T03:16:19.581Z,100162.34
2022-08-11T03:18:57.893Z,100153.06
2022-08-11T03:22:01.265Z,100142.13
2022-08-11T03:24:26.517Z,100154.81
2022-08-11T03:27:04.705Z,100162.44
2022-08-11T03:29:40.761Z,100162.44
2022-08-11T03:32:14.271Z,100162.44
2022-08-11T03:34:46.597Z,100167.50
2022-08-11T03:37:48.156Z,100164.16
2022-08-11T03:41:02.104Z,100165.84
2022-08-11T03:43:58.461Z,100161.63
2022-08-11T03:46:45.142Z,100168.41
2022-08-11T03:49:32.028Z,100159.09
2022-08-11T03:52:12.922Z,100154.88
2022-08-11T03:54:51.348Z,100155.72
2022-08-11T03:57:48.970Z,100157.41
2022-08-11T04:00:55.721Z,100153.97
2022-08-11T04:04:08.175Z,100164.97
2022-08-11T04:07:23.829Z,100158.25
2022-08-11T04:10:18.409Z,100162.53
2022-08-11T04:13:04.358Z,100165.06
2022-08-11T04:16:11.643Z,100155.72
2022-08-11T04:19:24.771Z,100156.56
2022-08-11T04:22:32.303Z,100163.28
2022-08-11T04:25:58.617Z,100157.28
2022-08-11T04:29:04.241Z,100158.13
2022-08-11T04:31:50.546Z,100164.03
2022-08-11T04:34:42.103Z,100159.75
2022-08-11T04:37:34.260Z,100153.81
2022-08-11T04:40:52.029Z,100159.72
2022-08-11T04:44:02.793Z,100162.28
2022-08-11T04:47:09.681Z,100164.81
2022-08-11T04:50:17.208Z,100154.75
2022-08-11T04:53:25.457Z,100148.00
2022-08-11T04:56:25.909Z,100164.03
2022-08-11T04:59:56.713Z,100165.72
2022-08-11T05:03:18.517Z,100173.38
2022-08-11T05:06:03.740Z,100168.28
2022-08-11T05:09:01.278Z,100165.81
2022-08-11T05:11:47.801Z,100166.59
2022-08-11T05:14:49.785Z,100169.13
2022-08-11T05:17:43.438Z,100160.59
2022-08-11T05:20:30.395Z,100165.63
2022-08-11T05:23:22.952Z,100166.47
2022-08-11T05:26:47.405Z,100176.53
2022-08-11T05:29:21.496Z,100167.16
2022-08-11T05:32:15.680Z,100167.91
2022-08-11T05:34:51.913Z,100173.78
2022-08-11T05:37:27.262Z,100150.94
2022-08-11T05:40:18.793Z,100156.03
2022-08-11T05:43:09.583Z,100168.75
2022-08-11T05:46:03.039Z,100150.97
2022-08-11T05:48:53.143Z,100162.78
2022-08-11T05:51:40.066Z,100159.44
2022-08-11T05:54:40.894Z,100157.75
2022-08-11T05:57:09.346Z,100155.25
2022-08-11T05:59:37.910Z,100147.59
2022-08-11T06:02:08.437Z,100137.47
2022-08-11T06:04:39.280Z,100171.25
2022-08-11T06:07:11.679Z,100167.75
2022-08-11T06:09:49.607Z,100133.94
2022-08-11T06:12:21.254Z,100165.19
2022-08-11T06:14:54.771Z,100161.78
2022-08-11T06:17:25.193Z,100165.16
2022-08-11T06:20:07.010Z,100164.25
2022-08-11T06:22:36.552Z,100168.47
2022-08-11T06:25:06.856Z,100161.53
2022-08-11T06:27:36.502Z,100163.91
2022-08-11T06:30:13.357Z,100168.09
2022-08-11T06:32:45.495Z,100151.16
2022-08-11T06:35:22.944Z,100170.63
2022-08-11T06:38:08.874Z,100166.47
2022-08-11T06:40:43.245Z,100166.56
2022-08-11T06:43:19.927Z,100166.56
2022-08-11T06:45:54.531Z,100160.50
2022-08-11T06:48:25.178Z,100147.88
2022-08-11T06:51:14.227Z,100157.09
2022-08-11T06:54:03.179Z,100159.56
2022-08-11T06:57:01.665Z,100154.47
2022-08-11T06:59:58.503Z,100136.88
2022-08-11T07:02:33.752Z,100137.72
2022-08-11T07:05:04.194Z,100151.13
2022-08-11T07:08:36.077Z,100143.38
2022-08-11T07:11:44.609Z,100134.25
2022-08-11T07:14:36.340Z,100142.72
2022-08-11T07:17:12.383Z,100132.63
2022-08-11T07:20:02.284Z,100142.72
2022-08-11T07:23:05.506Z,100124.00
2022-08-11T07:25:55.169Z,100126.50
2022-08-11T07:28:44.657Z,100130.72
2022-08-11T07:31:15.786Z,100117.84
2022-08-11T07:34:08.492Z,100126.16
2022-08-11T07:36:40.501Z,100123.56
2022-08-11T07:39:15.249Z,100113.38
2022-08-11T07:41:45.652Z,100092.19
2022-08-11T07:44:16.611Z,100124.25
2022-08-11T07:47:06.068Z,100121.75
2022-08-11T07:49:54.157Z,100117.50
2022-08-11T07:52:30.479Z,100117.41
2022-08-11T07:55:01.736Z,100108.91
2022-08-11T07:58:14.767Z,100107.97
2022-08-11T08:01:01.135Z,100112.84
2022-08-11T08:03:54.162Z,100094.31
2022-08-11T08:06:41.552Z,100110.22
2022-08-11T08:09:28.630Z,100109.28
2022-08-11T08:12:14.400Z,100106.66
2022-08-11T08:15:01.646Z,100104.09
2022-08-11T08:18:09.915Z,100100.72
2022-08-11T08:20:39.990Z,100098.91
2022-08-11T08:23:09.489Z,100093.69
2022-08-11T08:25:40.385Z,100093.59
2022-08-11T08:28:14.075Z,100089.19
2022-08-11T08:30:50.887Z,100085.69
2022-08-11T08:33:22.212Z,100080.50
2022-08-11T08:36:11.249Z,100082.91
2022-08-11T08:38:41.407Z,100074.34
2022-08-11T08:41:16.307Z,100077.66
2022-08-11T08:43:49.619Z,100058.97
2022-08-11T08:46:24.904Z,100073.97
2022-08-11T08:48:53.946Z,100072.22
2022-08-11T08:52:01.424Z,100075.53
2022-08-11T08:54:35.489Z,100062.00
2022-08-11T08:57:05.118Z,100063.63
2022-08-11T08:59:49.298Z,100060.97
2022-08-11T09:02:22.034Z,100054.13
2022-08-11T09:05:04.036Z,100057.41
2022-08-11T09:07:39.942Z,100052.22
2022-08-11T09:10:10.849Z,100051.16
2022-08-11T09:12:42.509Z,100043.38
2022-08-11T09:15:12.918Z,100043.25
2022-08-11T09:17:45.976Z,100049.16
2022-08-11T09:20:16.457Z,100035.50
2022-08-11T09:24:02.032Z,100040.56
2022-08-11T09:26:13.545Z,100036.06
2022-08-11T09:28:43.500Z,100035.94
2022-08-11T09:31:13.449Z,100024.75
2022-08-11T09:33:44.784Z,100039.97
2022-08-11T09:36:32.385Z,100035.59
2022-08-11T09:39:19.506Z,100032.94
2022-08-11T09:42:00.637Z,100036.19
2022-08-11T09:44:51.128Z,100035.00
2022-08-11T09:47:24.378Z,100028.47
2022-08-11T09:50:00.142Z,100036.28
2022-08-11T09:52:30.816Z,100033.19
2022-08-11T09:54:59.262Z,100024.16
2022-08-11T09:57:45.044Z,100019.34
2022-08-11T10:00:14.925Z,100005.69
2022-08-11T10:02:47.140Z,99999.69
2022-08-11T10:05:37.217Z,100011.94
2022-08-11T10:08:06.614Z,100001.66
2022-08-11T10:10:37.691Z,100005.97
2022-08-11T10:13:43.604Z,100002.16
2022-08-11T10:16:15.803Z,100003.88
2022-08-11T10:18:52.824Z,99996.25
2022-08-11T10:21:34.855Z,99996.16
2022-08-11T10:24:21.458Z,99995.63
2022-08-11T10:26:54.562Z,99981.34
2022-08-11T10:30:17.962Z,99984.75
2022-08-11T10:33:50.234Z,99978.56
2022-08-11T10:36:30.081Z,99976.66
2022-08-11T11:41:42.994Z,99906.72
2022-08-11T11:44:14.396Z,99901.47
2022-08-11T11:46:45.317Z,99891.69
2022-08-11T11:49:17.154Z,99885.81
2022-08-11T11:51:49.985Z,99890.41
2022-08-11T11:54:19.264Z,99893.00
2022-08-11T11:56:48.986Z,99889.00
2022-08-11T11:59:36.046Z,99878.44
2022-08-11T12:02:11.660Z,99879.41
2022-08-11T12:04:42.921Z,99877.28
2022-08-11T12:07:28.586Z,99887.31
2022-08-11T12:09:58.159Z,99880.97
2022-08-11T12:12:45.920Z,99880.00
2022-08-11T12:15:14.451Z,99879.09
2022-08-11T12:17:42.606Z,99874.75
2022-08-11T12:20:30.816Z,99882.50
2022-08-11T12:23:17.251Z,99882.56
2022-08-11T12:26:25.729Z,99876.78
2022-08-11T12:28:53.755Z,99866.13
2022-08-11T12:31:25.944Z,99882.19
2022-08-11T12:33:56.038Z,99872.34
2022-08-11T12:36:24.532Z,99869.94
2022-08-11T12:38:54.235Z,99862.53
2022-08-11T12:41:41.470Z,99862.44
2022-08-11T12:44:30.654Z,99858.44
2022-08-11T12:47:02.128Z,99858.88
2022-08-11T12:49:53.429Z,99848.91
2022-08-11T12:52:27.246Z,99849.19
2022-08-11T12:55:00.413Z,99849.75
2022-08-11T12:57:50.035Z,99857.91
2022-08-11T13:00:38.419Z,99860.44
2022-08-11T13:03:26.263Z,99858.91
2022-08-11T13:05:56.586Z,99854.94
2022-08-11T13:08:26.478Z,99853.28
2022-08-11T13:11:15.366Z,99845.91
2022-08-11T13:13:54.623Z,99837.09
2022-08-11T13:16:29.280Z,99848.03
2022-08-11T13:19:01.302Z,99838.00
2022-08-11T13:21:30.803Z,99834.97
2022-08-11T13:24:02.757Z,99836.75
2022-08-11T13:26:43.619Z,99834.41
2022-08-11T13:29:19.645Z,99840.56
2022-08-11T13:31:49.740Z,99839.47
2022-08-11T13:34:19.823Z,99836.00
2022-08-11T13:36:50.210Z,99834.78
2022-08-11T13:39:19.303Z,99836.06
2022-08-11T13:41:50.362Z,99837.34
2022-08-11T13:44:24.708Z,99833.13
2022-08-11T13:46:57.337Z,99827.50
2022-08-11T13:49:26.105Z,99824.63
2022-08-11T13:51:56.145Z,99823.53
2022-08-11T13:54:26.726Z,99810.75
2022-08-11T13:56:57.874Z,99819.97
2022-08-11T13:59:29.968Z,99818.31
2022-08-11T14:02:28.405Z,99811.31
2022-08-11T14:04:55.237Z,99812.91
2022-08-11T14:07:25.300Z,99800.59
2022-08-11T14:09:59.279Z,99802.69
2022-08-11T14:12:52.365Z,99785.00
2022-08-11T14:15:25.144Z,99801.53
2022-08-11T14:18:01.679Z,99790.94
2022-08-11T14:20:53.122Z,99793.00
2022-08-11T14:23:26.943Z,99792.88
2022-08-11T14:26:13.326Z,99794.06
2022-08-11T14:28:45.007Z,99794.34
2022-08-11T14:31:15.595Z,99790.69
2022-08-11T14:34:00.684Z,99794.47
2022-08-11T14:36:33.850Z,99800.44
2022-08-11T14:39:05.806Z,99800.22
2022-08-11T14:42:11.356Z,99786.31
2022-08-11T14:44:58.832Z,99799.50
2022-08-11T14:47:28.787Z,99794.75
2022-08-11T14:50:11.764Z,99800.97
2022-08-11T14:52:49.930Z,99795.66
2022-08-11T14:55:36.439Z,99798.22
2022-08-11T14:58:05.724Z,99792.47
2022-08-11T15:00:35.437Z,99801.06
2022-08-11T15:03:10.941Z,99804.81
2022-08-11T15:05:57.294Z,99814.03
2022-08-11T15:08:47.485Z,99804.25
2022-08-11T15:11:35.543Z,99805.53
2022-08-11T15:14:06.724Z,99805.41
2022-08-11T15:16:53.227Z,99817.16
2022-08-11T15:19:21.988Z,99814.25
2022-08-11T15:22:08.988Z,99793.50
2022-08-11T15:24:38.324Z,99802.41
2022-08-11T15:27:30.305Z,99828.28
2022-08-11T15:30:33.419Z,99813.66
2022-08-11T15:33:23.602Z,99820.13
2022-08-11T15:36:10.063Z,99812.38
2022-08-11T15:38:54.885Z,99809.19
2022-08-11T15:41:45.823Z,99818.16
2022-08-11T15:45:01.517Z,99827.38
2022-08-11T15:47:37.673Z,99821.63
2022-08-11T15:50:09.816Z,99813.84
2022-08-11T15:52:47.515Z,99825.50
2022-08-11T15:55:17.624Z,99814.75
2022-08-11T15:58:19.449Z,99825.13
2022-08-11T16:01:08.873Z,99841.13
2022-08-11T16:04:07.356Z,99837.97
2022-08-11T16:06:44.838Z,99833.44
2022-08-11T16:09:20.061Z,99844.56
2022-08-11T16:11:50.621Z,99832.34
2022-08-11T16:14:38.405Z,99836.06
2022-08-11T16:17:11.206Z,99824.25
2022-08-11T16:19:42.170Z,99842.19
2022-08-11T16:22:12.832Z,99829.75
2022-08-11T16:27:06.893Z,99845.09
2022-08-11T16:27:39.688Z,99836.91
2022-08-11T16:30:09.044Z,99834.78
2022-08-11T16:32:40.551Z,99816.13
2022-08-11T16:35:29.660Z,99815.06
2022-08-11T16:38:15.871Z,99811.38
2022-08-11T16:40:45.221Z,99816.84
2022-08-11T16:43:35.140Z,99805.34
2022-08-11T16:46:22.981Z,99781.44
2022-08-11T16:48:53.469Z,99792.59
2022-08-11T16:51:22.272Z,99789.16
2022-08-11T16:54:04.047Z,99784.69
2022-08-11T16:56:37.077Z,99781.34
2022-08-11T16:59:15.523Z,99784.97
2022-08-11T17:01:49.407Z,99785.06
2022-08-11T17:04:43.335Z,99795.78
2022-08-11T17:07:42.106Z,99794.63
2022-08-11T17:10:53.643Z,99791.97
2022-08-11T17:13:29.063Z,99802.03
2022-08-11T17:16:08.962Z,99803.16
2022-08-11T17:18:45.449Z,99810.97
2022-08-11T17:21:18.282Z,99810.84
2022-08-11T17:23:50.310Z,99820.19
2022-08-11T17:26:21.893Z,99814.16
2022-08-11T17:28:56.254Z,99825.00
2022-08-11T17:31:45.082Z,99824.66
2022-08-11T17:34:32.384Z,99838.28
2022-08-11T17:37:01.133Z,99837.63
2022-08-11T17:39:32.658Z,99840.09
2022-08-11T17:42:19.549Z,99841.22
2022-08-11T17:45:06.887Z,99844.78
2022-08-11T17:47:55.040Z,99844.25
2022-08-11T17:50:23.989Z,99832.91
2022-08-11T17:53:10.197Z,99837.41
2022-08-11T17:55:58.225Z,99840.88
2022-08-11T17:58:44.776Z,99828.47
2022-08-11T18:01:13.950Z,99830.06
2022-08-11T18:03:56.347Z,99835.97
2022-08-11T18:06:34.069Z,99836.94
2022-08-11T18:09:22.427Z,99834.41
2022-08-11T18:12:12.259Z,99844.44
2022-08-11T18:15:00.604Z,99847.78
2022-08-11T18:17:46.013Z,99840.06
2022-08-11T18:20:32.614Z,99848.66
2022-08-11T18:23:21.578Z,99855.47
2022-08-11T18:26:29.118Z,99853.84
2022-08-11T18:29:16.481Z,99852.28
2022-08-11T18:32:06.806Z,99860.88
2022-08-11T18:34:58.905Z,99839.84
2022-08-11T18:37:50.896Z,99865.13
2022-08-11T18:40:39.378Z,99861.00
2022-08-11T18:43:28.324Z,99865.28
2022-08-11T18:46:20.157Z,99862.75
2022-08-11T18:49:15.312Z,99863.78
2022-08-11T18:52:06.502Z,99864.03
2022-08-11T18:54:56.586Z,99869.28
2022-08-11T18:57:49.718Z,99865.06
2022-08-11T19:00:41.405Z,99868.41
2022-08-11T19:03:29.948Z,99876.88
2022-08-11T19:06:39.378Z,99876.88
2022-08-11T19:09:27.270Z,99866.75
2022-08-11T19:12:15.542Z,99868.50
2022-08-11T19:15:02.923Z,99873.53
2022-08-11T19:17:50.977Z,99869.38
2022-08-11T19:20:40.784Z,99872.81
2022-08-11T19:23:29.911Z,99869.50
2022-08-11T19:26:17.125Z,99875.66
2022-08-11T19:29:07.521Z,99886.72
2022-08-11T19:31:53.803Z,99876.66
2022-08-11T19:34:41.918Z,99888.69
2022-08-11T19:37:29.500Z,99884.66
2022-08-11T19:40:20.540Z,99885.81
2022-08-11T19:43:18.712Z,99880.75
2022-08-11T19:46:16.765Z,99883.31
2022-08-11T19:49:05.027Z,99876.63
2022-08-11T19:51:54.021Z,99880.34
2022-08-11T19:54:43.468Z,99877.19
2022-08-11T19:57:29.958Z,99886.59
2022-08-11T20:00:16.795Z,99868.09
2022-08-11T20:03:09.086Z,99875.84
2022-08-11T20:05:59.979Z,99875.94
2022-08-11T20:08:47.829Z,99871.63
2022-08-11T20:11:36.329Z,99865.66
2022-08-11T20:14:22.625Z,99873.28
2022-08-11T20:17:10.383Z,99875.84
2022-08-11T20:22:49.748Z,99869.41
2022-08-11T20:25:36.676Z,99872.00
2022-08-11T20:28:24.540Z,99866.97
2022-08-11T20:31:11.996Z,99877.00
2022-08-11T20:34:00.437Z,99875.94
2022-08-11T20:36:54.590Z,99879.34
2022-08-11T20:39:42.968Z,99881.06
2022-08-11T20:42:30.921Z,99882.69
2022-08-11T20:45:20.222Z,99885.03
2022-08-11T20:48:10.809Z,99884.09
2022-08-11T20:51:06.184Z,99889.09
2022-08-11T20:53:56.656Z,99886.53
2022-08-11T20:56:45.593Z,99874.16
2022-08-11T20:59:33.182Z,99879.50
2022-08-11T21:02:25.851Z,99874.56
2022-08-11T21:05:19.175Z,99887.28
2022-08-11T21:08:08.607Z,99869.59
2022-08-11T21:11:01.261Z,99886.31
2022-08-11T21:13:51.488Z,99902.41
2022-08-11T21:16:47.674Z,99898.09
2022-08-11T21:19:55.014Z,99894.78
2022-08-11T21:22:59.129Z,99896.47
2022-08-11T21:25:54.680Z,99902.44
2022-08-11T21:28:41.489Z,99903.31
2022-08-11T21:31:28.281Z,99899.09
2022-08-11T21:34:15.405Z,99905.97
2022-08-11T21:37:03.311Z,99901.78
2022-08-11T21:39:50.227Z,99911.13
2022-08-11T21:42:38.172Z,99911.97
2022-08-11T21:45:27.812Z,99899.38
2022-08-11T21:48:14.894Z,99908.69
2022-08-11T21:51:00.172Z,99906.13
2022-08-11T21:53:45.947Z,99905.34
2022-08-11T21:56:33.329Z,99903.69
2022-08-11T21:59:19.619Z,99914.75
2022-08-11T22:02:12.350Z,99916.53
2022-08-11T22:04:58.098Z,99912.41
2022-08-11T22:07:43.864Z,99915.13
2022-08-11T22:10:40.899Z,99916.75
2022-08-11T22:13:29.754Z,99910.69
2022-08-11T22:16:16.143Z,99903.91
2022-08-11T22:19:04.989Z,99895.44
2022-08-11T22:22:02.809Z,99904.78
2022-08-11T22:24:51.471Z,99904.88
2022-08-11T22:27:37.223Z,99907.38
2022-08-11T22:30:25.164Z,99910.69
2022-08-11T22:33:11.332Z,99899.69
2022-08-11T22:36:00.281Z,99909.84
2022-08-11T22:38:46.158Z,99902.31
2022-08-11T22:41:32.357Z,99915.06
2022-08-11T22:44:17.815Z,99917.59
2022-08-11T22:47:04.182Z,99913.44
2022-08-11T22:49:57.609Z,99923.81
2022-08-11T22:52:47.446Z,99920.78
2022-08-11T22:55:33.784Z,99922.75
2022-08-11T22:58:21.136Z,99923.78
2022-08-11T23:01:07.506Z,99928.03
2022-08-11T23:03:53.837Z,99920.38
2022-08-11T23:06:40.549Z,99918.56
2022-08-11T23:09:28.123Z,99910.78
2022-08-11T23:12:13.432Z,99915.84
2022-08-11T23:14:59.800Z,99909.81
2022-08-11T23:17:45.986Z,99907.22
2022-08-11T23:20:35.662Z,99908.06
2022-08-11T23:23:27.509Z,99907.22
2022-08-11T23:26:15.668Z,99903.03
2022-08-11T23:29:02.510Z,99910.59
2022-08-11T23:31:53.262Z,99905.50
2022-08-11T23:35:04.578Z,99905.53
2022-08-11T23:37:46.069Z,99905.63
2022-08-11T23:40:31.282Z,99900.63
2022-08-11T23:43:19.432Z,99905.75
2022-08-11T23:46:04.729Z,99901.50
2022-08-11T23:48:51.585Z,99893.97
2022-08-11T23:51:41.223Z,99899.91
2022-08-11T23:54:28.536Z,99902.44
2022-08-11T23:57:14.252Z,99898.19
